sensor_id;sensor_type;location;lat;lon;timestamp;temperature;humidity
3542;DHT22;1785;47.388;8.538;2022-09-13T00:00:43;21.20;99.90
3542;DHT22;1785;47.388;8.538;2022-09-13T00:03:10;21.10;99.90
3542;DHT22;1785;47.388;8.538;2022-09-13T00:05:39;20.90;99.90
3542;DHT22;1785;47.388;8.538;2022-09-13T00:08:06;21.00;99.90
3542;DHT22;1785;47.388;8.538;2022-09-13T00:10:33;21.00;99.90
3542;DHT22;1785;47.388;8.538;2022-09-13T00:13:00;21.00;99.90
3542;DHT22;1785;47.388;8.538;2022-09-13T00:15:27;21.00;99.90
3542;DHT22;1785;47.388;8.538;2022-09-13T00:17:54;21.00;99.90
3542;DHT22;1785;47.388;8.538;2022-09-13T00:20:21;20.90;99.90
3542;DHT22;1785;47.388;8.538;2022-09-13T00:22:47;21.10;99.90
3542;DHT22;1785;47.388;8.538;2022-09-13T00:25:13;20.70;99.90
3542;DHT22;1785;47.388;8.538;2022-09-13T00:27:40;20.60;99.90
3542;DHT22;1785;47.388;8.538;2022-09-13T00:30:07;20.40;99.90
3542;DHT22;1785;47.388;8.538;2022-09-13T00:32:34;20.20;99.90
3542;DHT22;1785;47.388;8.538;2022-09-13T00:35:01;20.40;99.90
3542;DHT22;1785;47.388;8.538;2022-09-13T00:37:27;20.50;99.90
3542;DHT22;1785;47.388;8.538;2022-09-13T00:39:54;20.60;99.90
3542;DHT22;1785;47.388;8.538;2022-09-13T00:42:24;20.60;99.90
3542;DHT22;1785;47.388;8.538;2022-09-13T00:44:56;20.60;99.90
3542;DHT22;1785;47.388;8.538;2022-09-13T00:47:27;20.50;99.90
3542;DHT22;1785;47.388;8.538;2022-09-13T00:49:59;20.50;99.90
3542;DHT22;1785;47.388;8.538;2022-09-13T00:52:28;19.90;99.90
3542;DHT22;1785;47.388;8.538;2022-09-13T00:55:01;19.50;99.90
3542;DHT22;1785;47.388;8.538;2022-09-13T00:57:28;19.60;99.90
3542;DHT22;1785;47.388;8.538;2022-09-13T00:59:59;19.30;99.90
3542;DHT22;1785;47.388;8.538;2022-09-13T01:02:29;19.30;99.90
3542;DHT22;1785;47.388;8.538;2022-09-13T01:04:55;19.60;99.90
3542;DHT22;1785;47.388;8.538;2022-09-13T01:07:22;19.40;99.90
3542;DHT22;1785;47.388;8.538;2022-09-13T01:09:49;19.30;99.90
3542;DHT22;1785;47.388;8.538;2022-09-13T01:12:24;19.60;99.90
3542;DHT22;1785;47.388;8.538;2022-09-13T01:14:51;19.60;99.90
3542;DHT22;1785;47.388;8.538;2022-09-13T01:17:18;19.90;99.90
3542;DHT22;1785;47.388;8.538;2022-09-13T01:19:45;20.10;99.90
3542;DHT22;1785;47.388;8.538;2022-09-13T01:22:36;20.10;99.90
3542;DHT22;1785;47.388;8.538;2022-09-13T01:25:30;19.70;99.90
3542;DHT22;1785;47.388;8.538;2022-09-13T01:28:11;19.40;99.90
3542;DHT22;1785;47.388;8.538;2022-09-13T01:30:46;19.30;99.90
3542;DHT22;1785;47.388;8.538;2022-09-13T01:33:28;19.60;99.90
3542;DHT22;1785;47.388;8.538;2022-09-13T01:36:15;19.70;99.90
3542;DHT22;1785;47.388;8.538;2022-09-13T01:38:53;20.00;99.90
3542;DHT22;1785;47.388;8.538;2022-09-13T01:41:40;20.00;99.90
3542;DHT22;1785;47.388;8.538;2022-09-13T01:44:24;20.00;99.90
3542;DHT22;1785;47.388;8.538;2022-09-13T01:47:01;20.10;99.90
3542;DHT22;1785;47.388;8.538;2022-09-13T01:49:32;20.20;99.90
3542;DHT22;1785;47.388;8.538;2022-09-13T01:52:04;20.20;99.90
3542;DHT22;1785;47.388;8.538;2022-09-13T01:54:38;20.20;99.90
3542;DHT22;1785;47.388;8.538;2022-09-13T01:57:12;20.20;99.90
3542;DHT22;1785;47.388;8.538;2022-09-13T01:59:47;20.20;99.90
3542;DHT22;1785;47.388;8.538;2022-09-13T02:02:19;20.30;99.90
3542;DHT22;1785;47.388;8.538;2022-09-13T02:04:51;20.20;99.90
3542;DHT22;1785;47.388;8.538;2022-09-13T02:07:21;20.30;99.90
3542;DHT22;1785;47.388;8.538;2022-09-13T02:09:53;20.20;99.90
3542;DHT22;1785;47.388;8.538;2022-09-13T02:12:24;20.10;99.90
3542;DHT22;1785;47.388;8.538;2022-09-13T02:14:55;19.70;99.90
3542;DHT22;1785;47.388;8.538;2022-09-13T02:17:25;19.80;99.90
3542;DHT22;1785;47.388;8.538;2022-09-13T02:19:56;19.80;99.90
3542;DHT22;1785;47.388;8.538;2022-09-13T02:22:26;19.90;99.90
3542;DHT22;1785;47.388;8.538;2022-09-13T02:24:55;20.00;99.90
3542;DHT22;1785;47.388;8.538;2022-09-13T02:27:26;19.90;99.90
3542;DHT22;1785;47.388;8.538;2022-09-13T02:29:56;19.60;99.90
3542;DHT22;1785;47.388;8.538;2022-09-13T02:32:28;19.10;99.90
3542;DHT22;1785;47.388;8.538;2022-09-13T02:34:58;19.30;99.90
3542;DHT22;1785;47.388;8.538;2022-09-13T02:37:28;19.40;99.90
3542;DHT22;1785;47.388;8.538;2022-09-13T02:39:59;19.80;99.90
3542;DHT22;1785;47.388;8.538;2022-09-13T02:42:32;19.90;99.90
3542;DHT22;1785;47.388;8.538;2022-09-13T02:45:01;19.80;99.90
3542;DHT22;1785;47.388;8.538;2022-09-13T02:47:40;19.90;99.90
3542;DHT22;1785;47.388;8.538;2022-09-13T02:50:18;19.90;99.90
3542;DHT22;1785;47.388;8.538;2022-09-13T02:52:49;19.80;99.90
3542;DHT22;1785;47.388;8.538;2022-09-13T02:55:21;19.70;99.90
3542;DHT22;1785;47.388;8.538;2022-09-13T02:57:58;19.60;99.90
3542;DHT22;1785;47.388;8.538;2022-09-13T03:00:25;19.60;99.90
3542;DHT22;1785;47.388;8.538;2022-09-13T03:02:55;19.50;99.90
3542;DHT22;1785;47.388;8.538;2022-09-13T03:05:21;19.50;99.90
3542;DHT22;1785;47.388;8.538;2022-09-13T03:07:48;19.50;99.90
3542;DHT22;1785;47.388;8.538;2022-09-13T03:10:17;19.60;99.90
3542;DHT22;1785;47.388;8.538;2022-09-13T03:13:01;19.70;99.90
3542;DHT22;1785;47.388;8.538;2022-09-13T03:15:43;19.70;99.90
3542;DHT22;1785;47.388;8.538;2022-09-13T03:18:18;19.80;99.90
3542;DHT22;1785;47.388;8.538;2022-09-13T03:21:00;19.90;99.90
3542;DHT22;1785;47.388;8.538;2022-09-13T03:23:41;19.80;99.90
3542;DHT22;1785;47.388;8.538;2022-09-13T03:26:25;19.70;99.90
3542;DHT22;1785;47.388;8.538;2022-09-13T03:29:12;19.70;99.90
3542;DHT22;1785;47.388;8.538;2022-09-13T03:31:48;19.70;99.90
3542;DHT22;1785;47.388;8.538;2022-09-13T03:34:23;19.60;99.90
3542;DHT22;1785;47.388;8.538;2022-09-13T03:36:55;19.60;99.90
3542;DHT22;1785;47.388;8.538;2022-09-13T03:39:32;19.60;99.90
3542;DHT22;1785;47.388;8.538;2022-09-13T03:42:04;19.50;99.90
3542;DHT22;1785;47.388;8.538;2022-09-13T03:44:40;19.50;99.90
3542;DHT22;1785;47.388;8.538;2022-09-13T03:47:09;19.30;99.90
3542;DHT22;1785;47.388;8.538;2022-09-13T03:49:37;19.50;99.90
3542;DHT22;1785;47.388;8.538;2022-09-13T03:52:04;19.50;99.90
3542;DHT22;1785;47.388;8.538;2022-09-13T03:54:32;19.50;99.90
3542;DHT22;1785;47.388;8.538;2022-09-13T03:57:12;19.60;99.90
3542;DHT22;1785;47.388;8.538;2022-09-13T03:59:41;19.60;99.90
3542;DHT22;1785;47.388;8.538;2022-09-13T04:02:09;19.60;99.90
3542;DHT22;1785;47.388;8.538;2022-09-13T04:04:37;19.60;99.90
3542;DHT22;1785;47.388;8.538;2022-09-13T04:07:03;19.50;99.90
3542;DHT22;1785;47.388;8.538;2022-09-13T04:09:30;19.50;99.90
3542;DHT22;1785;47.388;8.538;2022-09-13T04:11:56;19.50;99.90
3542;DHT22;1785;47.388;8.538;2022-09-13T04:14:22;19.60;99.90
3542;DHT22;1785;47.388;8.538;2022-09-13T04:16:51;19.50;99.90
3542;DHT22;1785;47.388;8.538;2022-09-13T04:19:18;19.50;99.90
3542;DHT22;1785;47.388;8.538;2022-09-13T04:21:47;19.50;99.90
3542;DHT22;1785;47.388;8.538;2022-09-13T04:24:13;19.30;99.90
3542;DHT22;1785;47.388;8.538;2022-09-13T04:26:40;19.30;99.90
3542;DHT22;1785;47.388;8.538;2022-09-13T04:29:06;19.30;99.90
3542;DHT22;1785;47.388;8.538;2022-09-13T04:31:32;19.30;99.90
3542;DHT22;1785;47.388;8.538;2022-09-13T04:33:59;19.30;99.90
3542;DHT22;1785;47.388;8.538;2022-09-13T04:36:25;19.20;99.90
3542;DHT22;1785;47.388;8.538;2022-09-13T04:38:52;19.20;99.90
3542;DHT22;1785;47.388;8.538;2022-09-13T04:41:18;19.30;99.90
3542;DHT22;1785;47.388;8.538;2022-09-13T04:43:48;19.30;99.90
3542;DHT22;1785;47.388;8.538;2022-09-13T04:46:15;19.30;99.90
3542;DHT22;1785;47.388;8.538;2022-09-13T04:48:46;19.40;99.90
3542;DHT22;1785;47.388;8.538;2022-09-13T04:51:13;19.40;99.90
3542;DHT22;1785;47.388;8.538;2022-09-13T04:53:40;19.40;99.90
3542;DHT22;1785;47.388;8.538;2022-09-13T04:56:07;19.40;99.90
3542;DHT22;1785;47.388;8.538;2022-09-13T04:58:35;19.40;99.90
3542;DHT22;1785;47.388;8.538;2022-09-13T05:01:01;19.60;99.90
3542;DHT22;1785;47.388;8.538;2022-09-13T05:03:29;19.90;99.90
3542;DHT22;1785;47.388;8.538;2022-09-13T05:06:00;20.10;99.90
3542;DHT22;1785;47.388;8.538;2022-09-13T05:08:27;20.30;99.90
3542;DHT22;1785;47.388;8.538;2022-09-13T05:10:54;20.40;99.90
3542;DHT22;1785;47.388;8.538;2022-09-13T05:13:21;20.50;99.90
3542;DHT22;1785;47.388;8.538;2022-09-13T05:15:48;20.70;99.90
3542;DHT22;1785;47.388;8.538;2022-09-13T05:18:14;20.80;99.90
3542;DHT22;1785;47.388;8.538;2022-09-13T05:20:40;20.80;99.90
3542;DHT22;1785;47.388;8.538;2022-09-13T05:23:07;20.80;99.90
3542;DHT22;1785;47.388;8.538;2022-09-13T05:25:33;20.80;99.90
3542;DHT22;1785;47.388;8.538;2022-09-13T05:28:00;20.80;99.90
3542;DHT22;1785;47.388;8.538;2022-09-13T05:30:27;20.80;99.90
3542;DHT22;1785;47.388;8.538;2022-09-13T05:32:54;20.70;99.90
3542;DHT22;1785;47.388;8.538;2022-09-13T05:35:21;20.60;99.90
3542;DHT22;1785;47.388;8.538;2022-09-13T05:37:48;20.60;99.90
3542;DHT22;1785;47.388;8.538;2022-09-13T05:40:14;20.40;99.90
3542;DHT22;1785;47.388;8.538;2022-09-13T05:42:41;20.50;99.90
3542;DHT22;1785;47.388;8.538;2022-09-13T05:45:08;20.20;99.90
3542;DHT22;1785;47.388;8.538;2022-09-13T05:47:35;20.00;99.90
3542;DHT22;1785;47.388;8.538;2022-09-13T05:50:01;19.90;99.90
3542;DHT22;1785;47.388;8.538;2022-09-13T05:52:28;19.30;99.90
3542;DHT22;1785;47.388;8.538;2022-09-13T05:54:54;18.90;99.90
3542;DHT22;1785;47.388;8.538;2022-09-13T05:57:20;19.00;99.90
3542;DHT22;1785;47.388;8.538;2022-09-13T05:59:47;19.20;99.90
3542;DHT22;1785;47.388;8.538;2022-09-13T06:02:13;19.20;99.90
3542;DHT22;1785;47.388;8.538;2022-09-13T06:04:40;19.00;99.90
3542;DHT22;1785;47.388;8.538;2022-09-13T06:07:10;18.90;99.90
3542;DHT22;1785;47.388;8.538;2022-09-13T06:09:37;18.70;99.90
3542;DHT22;1785;47.388;8.538;2022-09-13T06:12:03;18.90;99.90
3542;DHT22;1785;47.388;8.538;2022-09-13T06:14:30;19.10;99.90
3542;DHT22;1785;47.388;8.538;2022-09-13T06:16:56;19.20;99.90
3542;DHT22;1785;47.388;8.538;2022-09-13T06:19:23;19.40;99.90
3542;DHT22;1785;47.388;8.538;2022-09-13T06:21:50;19.50;99.90
3542;DHT22;1785;47.388;8.538;2022-09-13T06:24:16;19.50;99.90
3542;DHT22;1785;47.388;8.538;2022-09-13T06:26:42;19.70;99.90
3542;DHT22;1785;47.388;8.538;2022-09-13T06:29:10;19.50;99.90
3542;DHT22;1785;47.388;8.538;2022-09-13T06:31:36;19.40;99.90
3542;DHT22;1785;47.388;8.538;2022-09-13T06:34:10;19.30;99.90
3542;DHT22;1785;47.388;8.538;2022-09-13T06:36:37;19.30;99.90
3542;DHT22;1785;47.388;8.538;2022-09-13T06:39:04;19.40;99.90
3542;DHT22;1785;47.388;8.538;2022-09-13T06:41:31;19.60;99.90
3542;DHT22;1785;47.388;8.538;2022-09-13T06:43:59;19.60;99.90
3542;DHT22;1785;47.388;8.538;2022-09-13T06:46:27;19.60;99.90
3542;DHT22;1785;47.388;8.538;2022-09-13T06:48:54;19.80;99.90
3542;DHT22;1785;47.388;8.538;2022-09-13T06:51:23;19.80;99.90
3542;DHT22;1785;47.388;8.538;2022-09-13T06:53:51;19.90;99.90
3542;DHT22;1785;47.388;8.538;2022-09-13T06:56:22;19.90;99.90
3542;DHT22;1785;47.388;8.538;2022-09-13T06:58:51;20.00;99.90
3542;DHT22;1785;47.388;8.538;2022-09-13T07:01:20;20.10;99.90
3542;DHT22;1785;47.388;8.538;2022-09-13T07:03:48;20.10;99.90
3542;DHT22;1785;47.388;8.538;2022-09-13T07:06:16;20.10;99.90
3542;DHT22;1785;47.388;8.538;2022-09-13T07:08:44;20.10;99.90
3542;DHT22;1785;47.388;8.538;2022-09-13T07:11:13;20.20;99.90
3542;DHT22;1785;47.388;8.538;2022-09-13T07:13:40;20.30;99.90
3542;DHT22;1785;47.388;8.538;2022-09-13T07:16:08;20.20;99.90
3542;DHT22;1785;47.388;8.538;2022-09-13T07:18:35;20.40;99.90
3542;DHT22;1785;47.388;8.538;2022-09-13T07:21:03;20.30;99.90
3542;DHT22;1785;47.388;8.538;2022-09-13T07:23:31;20.40;99.90
3542;DHT22;1785;47.388;8.538;2022-09-13T07:25:59;20.50;99.90
3542;DHT22;1785;47.388;8.538;2022-09-13T07:28:28;20.50;99.90
3542;DHT22;1785;47.388;8.538;2022-09-13T07:30:56;20.70;99.90
3542;DHT22;1785;47.388;8.538;2022-09-13T07:33:23;20.80;99.90
3542;DHT22;1785;47.388;8.538;2022-09-13T07:35:54;20.90;99.90
3542;DHT22;1785;47.388;8.538;2022-09-13T07:38:20;20.90;99.90
3542;DHT22;1785;47.388;8.538;2022-09-13T07:40:52;20.70;99.90
3542;DHT22;1785;47.388;8.538;2022-09-13T07:43:19;20.80;99.90
3542;DHT22;1785;47.388;8.538;2022-09-13T07:45:45;20.80;99.90
3542;DHT22;1785;47.388;8.538;2022-09-13T07:48:12;20.70;99.90
3542;DHT22;1785;47.388;8.538;2022-09-13T07:50:38;20.80;99.90
3542;DHT22;1785;47.388;8.538;2022-09-13T07:53:05;20.70;99.90
3542;DHT22;1785;47.388;8.538;2022-09-13T07:55:31;20.80;99.90
3542;DHT22;1785;47.388;8.538;2022-09-13T07:57:58;21.00;99.90
3542;DHT22;1785;47.388;8.538;2022-09-13T08:00:24;21.10;99.90
3542;DHT22;1785;47.388;8.538;2022-09-13T08:02:51;21.10;99.90
3542;DHT22;1785;47.388;8.538;2022-09-13T08:05:18;20.90;99.90
3542;DHT22;1785;47.388;8.538;2022-09-13T08:07:44;20.70;99.90
3542;DHT22;1785;47.388;8.538;2022-09-13T08:10:10;21.00;99.90
3542;DHT22;1785;47.388;8.538;2022-09-13T08:12:37;21.20;99.90
3542;DHT22;1785;47.388;8.538;2022-09-13T08:15:03;21.20;99.90
3542;DHT22;1785;47.388;8.538;2022-09-13T08:17:30;21.40;99.90
3542;DHT22;1785;47.388;8.538;2022-09-13T08:19:57;21.60;99.90
3542;DHT22;1785;47.388;8.538;2022-09-13T08:22:24;21.60;99.90
3542;DHT22;1785;47.388;8.538;2022-09-13T08:24:50;21.60;99.90
3542;DHT22;1785;47.388;8.538;2022-09-13T08:27:16;21.90;99.90
3542;DHT22;1785;47.388;8.538;2022-09-13T08:29:43;21.90;99.90
3542;DHT22;1785;47.388;8.538;2022-09-13T08:32:09;21.90;99.90
3542;DHT22;1785;47.388;8.538;2022-09-13T08:34:35;22.10;99.90
3542;DHT22;1785;47.388;8.538;2022-09-13T08:37:02;22.20;99.90
3542;DHT22;1785;47.388;8.538;2022-09-13T08:39:29;22.00;99.90
3542;DHT22;1785;47.388;8.538;2022-09-13T08:42:16;21.60;99.90
3542;DHT22;1785;47.388;8.538;2022-09-13T08:44:46;21.60;99.90
3542;DHT22;1785;47.388;8.538;2022-09-13T08:47:25;21.60;99.90
3542;DHT22;1785;47.388;8.538;2022-09-13T08:49:58;21.70;99.90
3542;DHT22;1785;47.388;8.538;2022-09-13T08:52:29;22.10;99.90
3542;DHT22;1785;47.388;8.538;2022-09-13T08:54:57;22.40;99.90
3542;DHT22;1785;47.388;8.538;2022-09-13T08:57:27;22.60;99.90
3542;DHT22;1785;47.388;8.538;2022-09-13T09:00:03;22.50;99.90
3542;DHT22;1785;47.388;8.538;2022-09-13T09:02:48;22.40;99.90
3542;DHT22;1785;47.388;8.538;2022-09-13T09:05:17;22.70;99.90
3542;DHT22;1785;47.388;8.538;2022-09-13T09:07:46;22.70;99.90
3542;DHT22;1785;47.388;8.538;2022-09-13T09:10:19;22.70;99.90
3542;DHT22;1785;47.388;8.538;2022-09-13T09:12:48;22.90;99.90
3542;DHT22;1785;47.388;8.538;2022-09-13T09:15:18;23.00;99.90
3542;DHT22;1785;47.388;8.538;2022-09-13T09:17:50;23.00;99.90
3542;DHT22;1785;47.388;8.538;2022-09-13T09:20:23;22.90;99.90
3542;DHT22;1785;47.388;8.538;2022-09-13T09:22:52;23.00;99.90
3542;DHT22;1785;47.388;8.538;2022-09-13T09:25:22;23.10;99.90
3542;DHT22;1785;47.388;8.538;2022-09-13T09:27:48;23.10;99.90
3542;DHT22;1785;47.388;8.538;2022-09-13T09:30:15;23.20;99.90
3542;DHT22;1785;47.388;8.538;2022-09-13T09:32:49;23.30;99.90
3542;DHT22;1785;47.388;8.538;2022-09-13T09:35:27;23.50;99.90
3542;DHT22;1785;47.388;8.538;2022-09-13T09:38:28;23.40;99.90
3542;DHT22;1785;47.388;8.538;2022-09-13T09:40:59;23.60;99.90
3542;DHT22;1785;47.388;8.538;2022-09-13T09:43:28;23.50;99.90
3542;DHT22;1785;47.388;8.538;2022-09-13T09:46:00;23.20;99.90
3542;DHT22;1785;47.388;8.538;2022-09-13T09:48:34;23.30;99.90
3542;DHT22;1785;47.388;8.538;2022-09-13T09:51:04;23.50;99.90
3542;DHT22;1785;47.388;8.538;2022-09-13T09:53:34;23.60;99.90
3542;DHT22;1785;47.388;8.538;2022-09-13T09:56:19;23.70;99.90
3542;DHT22;1785;47.388;8.538;2022-09-13T09:58:46;24.00;99.90
3542;DHT22;1785;47.388;8.538;2022-09-13T10:01:20;24.00;99.90
3542;DHT22;1785;47.388;8.538;2022-09-13T10:04:04;24.10;99.90
3542;DHT22;1785;47.388;8.538;2022-09-13T10:06:34;24.00;99.90
3542;DHT22;1785;47.388;8.538;2022-09-13T10:09:03;24.00;99.90
3542;DHT22;1785;47.388;8.538;2022-09-13T10:11:46;24.20;99.90
3542;DHT22;1785;47.388;8.538;2022-09-13T10:14:28;24.30;99.90
3542;DHT22;1785;47.388;8.538;2022-09-13T10:17:05;24.50;99.90
3542;DHT22;1785;47.388;8.538;2022-09-13T10:19:32;24.40;99.90
3542;DHT22;1785;47.388;8.538;2022-09-13T10:22:00;24.60;99.90
3542;DHT22;1785;47.388;8.538;2022-09-13T10:24:26;24.70;99.90
3542;DHT22;1785;47.388;8.538;2022-09-13T10:26:54;24.70;99.90
3542;DHT22;1785;47.388;8.538;2022-09-13T10:29:21;24.60;99.90
3542;DHT22;1785;47.388;8.538;2022-09-13T10:31:49;24.80;99.90
3542;DHT22;1785;47.388;8.538;2022-09-13T10:34:20;24.80;99.90
3542;DHT22;1785;47.388;8.538;2022-09-13T10:36:52;25.00;99.90
3542;DHT22;1785;47.388;8.538;2022-09-13T10:39:21;25.40;99.90
3542;DHT22;1785;47.388;8.538;2022-09-13T10:41:50;25.60;99.90
3542;DHT22;1785;47.388;8.538;2022-09-13T10:44:31;25.90;99.30
3542;DHT22;1785;47.388;8.538;2022-09-13T10:47:00;26.00;99.50
3542;DHT22;1785;47.388;8.538;2022-09-13T10:49:35;26.10;99.10
3542;DHT22;1785;47.388;8.538;2022-09-13T10:52:28;26.20;97.50
3542;DHT22;1785;47.388;8.538;2022-09-13T10:55:31;26.00;97.40
3542;DHT22;1785;47.388;8.538;2022-09-13T10:58:16;26.10;97.90
3542;DHT22;1785;47.388;8.538;2022-09-13T11:00:58;26.50;98.80
3542;DHT22;1785;47.388;8.538;2022-09-13T11:03:40;26.50;98.30
3542;DHT22;1785;47.388;8.538;2022-09-13T11:06:13;26.70;97.80
3542;DHT22;1785;47.388;8.538;2022-09-13T11:08:46;26.40;97.00
3542;DHT22;1785;47.388;8.538;2022-09-13T11:11:21;26.40;97.80
3542;DHT22;1785;47.388;8.538;2022-09-13T11:14:04;26.40;98.20
3542;DHT22;1785;47.388;8.538;2022-09-13T11:16:47;26.60;98.30
3542;DHT22;1785;47.388;8.538;2022-09-13T11:19:32;26.70;97.70
3542;DHT22;1785;47.388;8.538;2022-09-13T11:22:18;26.80;98.40
3542;DHT22;1785;47.388;8.538;2022-09-13T11:25:02;26.50;97.00
3542;DHT22;1785;47.388;8.538;2022-09-13T11:27:39;26.60;97.60
3542;DHT22;1785;47.388;8.538;2022-09-13T11:30:11;26.60;97.10
3542;DHT22;1785;47.388;8.538;2022-09-13T11:35:45;27.00;96.80
3542;DHT22;1785;47.388;8.538;2022-09-13T11:41:12;27.30;97.10
3542;DHT22;1785;47.388;8.538;2022-09-13T11:43:51;27.50;96.40
3542;DHT22;1785;47.388;8.538;2022-09-13T11:46:26;27.50;96.20
3542;DHT22;1785;47.388;8.538;2022-09-13T11:49:22;27.70;96.80
3542;DHT22;1785;47.388;8.538;2022-09-13T11:52:01;27.70;96.30
3542;DHT22;1785;47.388;8.538;2022-09-13T11:54:38;27.70;95.70
3542;DHT22;1785;47.388;8.538;2022-09-13T11:57:11;27.40;95.90
3542;DHT22;1785;47.388;8.538;2022-09-13T11:59:44;27.50;96.90
3542;DHT22;1785;47.388;8.538;2022-09-13T12:02:18;27.60;97.50
3542;DHT22;1785;47.388;8.538;2022-09-13T12:04:51;27.70;98.10
3542;DHT22;1785;47.388;8.538;2022-09-13T12:07:26;27.70;99.60
3542;DHT22;1785;47.388;8.538;2022-09-13T12:09:59;27.60;99.50
3542;DHT22;1785;47.388;8.538;2022-09-13T12:12:31;27.70;99.40
3542;DHT22;1785;47.388;8.538;2022-09-13T12:15:03;27.80;99.20
3542;DHT22;1785;47.388;8.538;2022-09-13T12:17:35;27.90;98.70
3542;DHT22;1785;47.388;8.538;2022-09-13T12:20:10;28.20;98.00
3542;DHT22;1785;47.388;8.538;2022-09-13T12:22:37;28.10;98.80
3542;DHT22;1785;47.388;8.538;2022-09-13T12:25:17;28.20;98.40
3542;DHT22;1785;47.388;8.538;2022-09-13T12:27:50;28.20;99.20
3542;DHT22;1785;47.388;8.538;2022-09-13T12:30:19;28.30;97.40
3542;DHT22;1785;47.388;8.538;2022-09-13T12:32:46;28.50;97.30
3542;DHT22;1785;47.388;8.538;2022-09-13T12:35:21;28.50;97.00
3542;DHT22;1785;47.388;8.538;2022-09-13T12:38:22;28.40;97.30
3542;DHT22;1785;47.388;8.538;2022-09-13T12:41:14;28.40;97.50
3542;DHT22;1785;47.388;8.538;2022-09-13T12:44:00;28.50;97.60
3542;DHT22;1785;47.388;8.538;2022-09-13T12:46:52;28.50;98.20
3542;DHT22;1785;47.388;8.538;2022-09-13T12:49:43;28.60;98.40
3542;DHT22;1785;47.388;8.538;2022-09-13T12:52:26;28.50;98.20
3542;DHT22;1785;47.388;8.538;2022-09-13T12:55:29;28.50;98.30
3542;DHT22;1785;47.388;8.538;2022-09-13T12:58:05;28.50;98.00
3542;DHT22;1785;47.388;8.538;2022-09-13T13:00:40;28.40;98.30
3542;DHT22;1785;47.388;8.538;2022-09-13T13:03:14;28.40;97.80
3542;DHT22;1785;47.388;8.538;2022-09-13T13:05:43;28.40;98.20
3542;DHT22;1785;47.388;8.538;2022-09-13T13:08:27;28.40;97.70
3542;DHT22;1785;47.388;8.538;2022-09-13T13:11:02;28.50;98.20
3542;DHT22;1785;47.388;8.538;2022-09-13T13:13:33;28.40;98.00
3542;DHT22;1785;47.388;8.538;2022-09-13T13:16:04;28.40;98.00
3542;DHT22;1785;47.388;8.538;2022-09-13T13:18:43;28.30;97.50
3542;DHT22;1785;47.388;8.538;2022-09-13T13:21:34;28.30;97.90
3542;DHT22;1785;47.388;8.538;2022-09-13T13:27:44;28.40;98.00
3542;DHT22;1785;47.388;8.538;2022-09-13T13:30:50;28.30;97.60
3542;DHT22;1785;47.388;8.538;2022-09-13T13:33:24;28.30;99.00
3542;DHT22;1785;47.388;8.538;2022-09-13T13:35:51;28.20;99.10
3542;DHT22;1785;47.388;8.538;2022-09-13T13:38:46;28.20;99.60
3542;DHT22;1785;47.388;8.538;2022-09-13T13:41:38;28.30;98.90
3542;DHT22;1785;47.388;8.538;2022-09-13T13:50:30;28.40;97.90
3542;DHT22;1785;47.388;8.538;2022-09-13T13:52:58;28.40;98.00
3542;DHT22;1785;47.388;8.538;2022-09-13T13:55:40;28.30;98.20
3542;DHT22;1785;47.388;8.538;2022-09-13T14:01:05;28.50;99.00
3542;DHT22;1785;47.388;8.538;2022-09-13T14:03:47;28.50;99.20
3542;DHT22;1785;47.388;8.538;2022-09-13T14:06:18;28.60;98.90
3542;DHT22;1785;47.388;8.538;2022-09-13T14:08:56;28.60;98.10
3542;DHT22;1785;47.388;8.538;2022-09-13T14:11:35;28.60;98.70
3542;DHT22;1785;47.388;8.538;2022-09-13T14:14:17;28.50;98.60
3542;DHT22;1785;47.388;8.538;2022-09-13T14:16:59;28.60;98.40
3542;DHT22;1785;47.388;8.538;2022-09-13T14:19:31;28.30;98.60
3542;DHT22;1785;47.388;8.538;2022-09-13T14:22:12;28.20;98.90
3542;DHT22;1785;47.388;8.538;2022-09-13T14:24:40;28.40;99.40
3542;DHT22;1785;47.388;8.538;2022-09-13T14:27:13;28.60;99.90
3542;DHT22;1785;47.388;8.538;2022-09-13T14:29:43;28.90;99.90
3542;DHT22;1785;47.388;8.538;2022-09-13T14:32:15;29.00;99.80
3542;DHT22;1785;47.388;8.538;2022-09-13T14:34:51;28.90;99.90
3542;DHT22;1785;47.388;8.538;2022-09-13T14:37:22;29.10;99.90
3542;DHT22;1785;47.388;8.538;2022-09-13T14:39:54;29.00;99.90
3542;DHT22;1785;47.388;8.538;2022-09-13T14:42:20;29.10;99.90
3542;DHT22;1785;47.388;8.538;2022-09-13T14:44:47;28.80;99.90
3542;DHT22;1785;47.388;8.538;2022-09-13T14:47:19;28.80;99.90
3542;DHT22;1785;47.388;8.538;2022-09-13T14:49:49;28.60;99.90
3542;DHT22;1785;47.388;8.538;2022-09-13T14:52:24;28.60;99.90
3542;DHT22;1785;47.388;8.538;2022-09-13T14:54:53;28.60;99.90
3542;DHT22;1785;47.388;8.538;2022-09-13T14:57:24;28.70;99.90
3542;DHT22;1785;47.388;8.538;2022-09-13T14:59:55;28.60;99.90
3542;DHT22;1785;47.388;8.538;2022-09-13T15:02:26;28.50;99.90
3542;DHT22;1785;47.388;8.538;2022-09-13T15:04:55;28.50;99.90
3542;DHT22;1785;47.388;8.538;2022-09-13T15:07:28;28.70;99.90
3542;DHT22;1785;47.388;8.538;2022-09-13T15:09:56;28.80;99.90
3542;DHT22;1785;47.388;8.538;2022-09-13T15:12:25;28.70;99.90
3542;DHT22;1785;47.388;8.538;2022-09-13T15:15:24;28.70;99.90
3542;DHT22;1785;47.388;8.538;2022-09-13T15:17:53;28.60;99.90
3542;DHT22;1785;47.388;8.538;2022-09-13T15:20:20;28.80;99.90
3542;DHT22;1785;47.388;8.538;2022-09-13T15:22:48;28.90;99.90
3542;DHT22;1785;47.388;8.538;2022-09-13T15:25:18;28.80;99.90
3542;DHT22;1785;47.388;8.538;2022-09-13T15:27:46;28.80;99.90
3542;DHT22;1785;47.388;8.538;2022-09-13T15:30:22;28.80;99.90
3542;DHT22;1785;47.388;8.538;2022-09-13T15:32:48;28.80;99.90
3542;DHT22;1785;47.388;8.538;2022-09-13T15:35:16;28.80;99.90
3542;DHT22;1785;47.388;8.538;2022-09-13T15:37:43;28.70;99.90
3542;DHT22;1785;47.388;8.538;2022-09-13T15:40:18;28.60;99.90
3542;DHT22;1785;47.388;8.538;2022-09-13T15:42:48;28.60;99.90
3542;DHT22;1785;47.388;8.538;2022-09-13T15:45:16;28.50;99.90
3542;DHT22;1785;47.388;8.538;2022-09-13T15:47:45;28.50;99.90
3542;DHT22;1785;47.388;8.538;2022-09-13T15:50:22;28.30;99.90
3542;DHT22;1785;47.388;8.538;2022-09-13T15:52:49;28.30;99.90
3542;DHT22;1785;47.388;8.538;2022-09-13T15:55:16;28.30;99.90
3542;DHT22;1785;47.388;8.538;2022-09-13T15:57:43;28.40;99.90
3542;DHT22;1785;47.388;8.538;2022-09-13T16:00:14;28.30;99.90
3542;DHT22;1785;47.388;8.538;2022-09-13T16:02:41;28.30;99.90
3542;DHT22;1785;47.388;8.538;2022-09-13T16:05:07;28.30;99.90
3542;DHT22;1785;47.388;8.538;2022-09-13T16:07:34;28.30;99.90
3542;DHT22;1785;47.388;8.538;2022-09-13T16:10:01;28.30;99.90
3542;DHT22;1785;47.388;8.538;2022-09-13T16:12:28;28.20;99.90
3542;DHT22;1785;47.388;8.538;2022-09-13T16:14:55;28.10;99.90
3542;DHT22;1785;47.388;8.538;2022-09-13T16:17:23;28.00;99.90
3542;DHT22;1785;47.388;8.538;2022-09-13T16:19:49;28.10;99.90
3542;DHT22;1785;47.388;8.538;2022-09-13T16:22:16;28.10;99.90
3542;DHT22;1785;47.388;8.538;2022-09-13T16:24:42;28.10;99.90
3542;DHT22;1785;47.388;8.538;2022-09-13T16:27:09;28.00;99.90
3542;DHT22;1785;47.388;8.538;2022-09-13T16:29:36;28.00;99.90
3542;DHT22;1785;47.388;8.538;2022-09-13T16:32:03;28.00;99.90
3542;DHT22;1785;47.388;8.538;2022-09-13T16:34:30;28.00;99.90
3542;DHT22;1785;47.388;8.538;2022-09-13T16:36:56;27.90;99.90
3542;DHT22;1785;47.388;8.538;2022-09-13T16:39:22;27.90;99.90
3542;DHT22;1785;47.388;8.538;2022-09-13T16:41:49;27.90;99.90
3542;DHT22;1785;47.388;8.538;2022-09-13T16:44:15;27.90;99.90
3542;DHT22;1785;47.388;8.538;2022-09-13T16:46:42;28.10;99.90
3542;DHT22;1785;47.388;8.538;2022-09-13T16:49:08;28.00;99.90